createdAt,value
2017-06-28T00:01:53.232Z,18.60
2017-06-28T00:04:21.733Z,18.73
2017-06-28T00:06:51.255Z,17.57
2017-06-28T00:09:21.549Z,19.27
2017-06-28T00:11:49.923Z,17.98
2017-06-28T00:14:21.266Z,18.60
2017-06-28T00:16:54.591Z,19.12
2017-06-28T00:19:23.240Z,19.72
2017-06-28T00:21:53.145Z,19.17
2017-06-28T00:24:21.225Z,20.43
2017-06-28T00:26:49.620Z,19.77
2017-06-28T00:29:17.422Z,18.48
2017-06-28T00:31:46.460Z,19.22
2017-06-28T00:34:14.057Z,19.03
2017-06-28T00:36:41.676Z,18.32
2017-06-28T00:39:11.106Z,19.83
2017-06-28T00:41:42.659Z,19.83
2017-06-28T00:44:13.267Z,20.12
2017-06-28T00:46:41.540Z,18.95
2017-06-28T00:49:10.747Z,19.75
2017-06-28T00:51:39.281Z,21.37
2017-06-28T00:54:07.229Z,18.82
2017-06-28T00:56:38.517Z,18.82
2017-06-28T00:59:08.242Z,17.90
2017-06-28T01:01:35.370Z,18.67
2017-06-28T01:04:03.124Z,19.40
2017-06-28T01:06:30.814Z,18.62
2017-06-28T01:09:02.591Z,18.52
2017-06-28T01:11:29.408Z,20.12
2017-06-28T01:13:59.250Z,18.87
2017-06-28T01:16:28.103Z,19.32
2017-06-28T01:19:00.038Z,17.88
2017-06-28T01:21:28.778Z,20.58
2017-06-28T01:23:57.067Z,18.33
2017-06-28T01:26:25.565Z,19.97
2017-06-28T01:28:54.643Z,19.33
2017-06-28T01:31:23.384Z,18.12
2017-06-28T01:33:52.945Z,19.33
2017-06-28T01:36:22.622Z,19.78
2017-06-28T01:38:52.104Z,20.98
2017-06-28T01:43:58.447Z,18.00
2017-06-28T01:46:38.617Z,18.68
2017-06-28T01:49:06.507Z,18.35
2017-06-28T01:51:38.188Z,18.48
2017-06-28T01:54:07.702Z,18.55
2017-06-28T01:56:36.001Z,19.18
2017-06-28T01:59:04.093Z,18.03
2017-06-28T02:01:31.495Z,17.52
2017-06-28T02:03:58.517Z,19.65
2017-06-28T02:06:26.304Z,19.50
2017-06-28T02:11:29.205Z,18.83
2017-06-28T02:13:56.822Z,18.65
2017-06-28T02:16:23.980Z,19.25
2017-06-28T02:18:51.774Z,19.73
2017-06-28T02:21:20.635Z,20.20
2017-06-28T02:23:50.125Z,19.75
2017-06-28T02:26:23.139Z,19.03
2017-06-28T02:28:51.912Z,19.30
2017-06-28T02:31:21.505Z,19.73
2017-06-28T02:33:48.709Z,20.33
2017-06-28T02:36:18.735Z,19.53
2017-06-28T02:38:55.639Z,20.08
2017-06-28T02:41:22.838Z,18.02
2017-06-28T02:43:50.700Z,18.17
2017-06-28T02:46:19.688Z,18.63
2017-06-28T02:48:49.016Z,17.47
2017-06-28T02:51:19.139Z,18.33
2017-06-28T02:53:50.972Z,18.78
2017-06-28T02:56:19.619Z,19.95
2017-06-28T02:58:50.081Z,18.48
2017-06-28T03:01:20.469Z,17.72
2017-06-28T03:03:48.826Z,20.13
2017-06-28T03:06:18.878Z,17.40
2017-06-28T03:08:46.224Z,18.65
2017-06-28T03:11:13.246Z,18.10
2017-06-28T03:13:42.311Z,16.80
2017-06-28T03:16:14.705Z,17.28
2017-06-28T03:18:44.203Z,17.98
2017-06-28T03:21:13.254Z,19.72
2017-06-28T03:23:46.263Z,19.07
2017-06-28T03:26:13.390Z,17.13
2017-06-28T03:28:43.566Z,18.07
2017-06-28T03:31:12.514Z,18.50
2017-06-28T03:33:44.984Z,17.30
2017-06-28T03:36:13.386Z,17.40
2017-06-28T03:41:18.020Z,18.28
2017-06-28T03:43:46.201Z,16.52
2017-06-28T03:46:20.502Z,16.43
2017-06-28T03:48:51.727Z,18.32
2017-06-28T03:51:21.931Z,17.20
2017-06-28T03:53:50.525Z,17.03
2017-06-28T03:56:19.427Z,17.98
2017-06-28T03:58:47.288Z,17.35
2017-06-28T04:01:14.096Z,18.37
2017-06-28T04:03:44.655Z,17.70
2017-06-28T04:06:15.384Z,16.90
2017-06-28T04:08:45.079Z,17.17
2017-06-28T04:11:12.184Z,17.15
2017-06-28T04:13:40.874Z,16.78
2017-06-28T04:16:11.484Z,16.83
2017-06-28T04:18:40.690Z,17.58
2017-06-28T04:21:09.567Z,17.08
2017-06-28T04:23:36.925Z,16.73
2017-06-28T04:26:04.001Z,16.93
2017-06-28T04:28:31.187Z,16.75
2017-06-28T04:30:58.235Z,17.37
2017-06-28T04:33:25.304Z,16.50
2017-06-28T04:35:52.064Z,17.02
2017-06-28T04:38:19.602Z,18.57
2017-06-28T04:40:46.750Z,17.42
2017-06-28T04:43:13.807Z,18.48
2017-06-28T04:45:41.112Z,19.23
2017-06-28T04:48:07.871Z,19.08
2017-06-28T04:50:35.045Z,18.13
2017-06-28T04:53:02.471Z,18.15
2017-06-28T04:55:29.238Z,19.42
2017-06-28T04:57:56.006Z,18.90
2017-06-28T05:00:24.715Z,18.50
2017-06-28T05:02:52.821Z,19.42
2017-06-28T05:05:21.204Z,16.85
2017-06-28T05:07:50.128Z,15.93
2017-06-28T05:10:17.151Z,19.08
2017-06-28T05:12:44.859Z,17.50
2017-06-28T05:15:12.714Z,19.05
2017-06-28T05:17:39.815Z,19.33
2017-06-28T05:20:06.566Z,18.00
2017-06-28T05:22:35.201Z,18.55
2017-06-28T05:25:01.982Z,19.43
2017-06-28T05:27:28.764Z,17.03
2017-06-28T05:29:56.677Z,17.98
2017-06-28T05:32:23.700Z,17.65
2017-06-28T05:34:50.790Z,16.72
2017-06-28T05:37:19.456Z,18.45
2017-06-28T05:39:46.219Z,17.63
2017-06-28T05:42:13.960Z,19.15
2017-06-28T05:44:41.494Z,17.97
2017-06-28T05:47:08.283Z,16.60
2017-06-28T05:49:35.293Z,17.65
2017-06-28T05:52:02.335Z,18.58
2017-06-28T05:54:30.983Z,20.12
2017-06-28T05:56:58.568Z,19.82
2017-06-28T05:59:25.893Z,19.78
2017-06-28T06:01:52.769Z,21.33
2017-06-28T06:04:20.056Z,20.90
2017-06-28T06:06:47.256Z,19.78
2017-06-28T06:09:14.187Z,22.92
2017-06-28T06:11:41.990Z,21.83
2017-06-28T06:14:16.000Z,22.12
2017-06-28T06:16:42.805Z,24.68
2017-06-28T06:19:09.663Z,20.58
2017-06-28T06:21:36.792Z,23.40
2017-06-28T06:24:03.634Z,21.15
2017-06-28T06:26:30.508Z,21.33
2017-06-28T06:28:57.653Z,21.05
2017-06-28T06:31:27.696Z,18.43
2017-06-28T06:33:54.566Z,21.63
2017-06-28T06:36:27.340Z,21.15
2017-06-28T06:38:54.215Z,19.83
2017-06-28T06:41:21.096Z,20.58
2017-06-28T06:43:48.285Z,24.45
2017-06-28T06:46:17.683Z,22.70
2017-06-28T06:51:37.066Z,21.03
2017-06-28T06:54:04.970Z,18.32
2017-06-28T06:56:32.038Z,19.63
2017-06-28T06:58:59.210Z,18.42
2017-06-28T07:01:36.063Z,18.07
2017-06-28T07:04:03.137Z,16.40
2017-06-28T07:06:29.978Z,16.97
2017-06-28T07:08:57.528Z,15.10
2017-06-28T07:11:24.588Z,17.37
2017-06-28T07:13:52.788Z,16.38
2017-06-28T07:16:21.115Z,15.95
2017-06-28T07:18:53.263Z,16.53
2017-06-28T07:21:22.234Z,16.85
2017-06-28T07:23:49.679Z,17.87
2017-06-28T07:26:16.760Z,15.27
2017-06-28T07:28:44.197Z,14.73
2017-06-28T07:31:11.240Z,17.82
2017-06-28T07:33:42.008Z,18.18
2017-06-28T07:36:09.760Z,15.30
2017-06-28T07:38:37.396Z,16.80
2017-06-28T07:41:04.641Z,16.70
2017-06-28T07:43:32.618Z,15.12
2017-06-28T07:46:00.381Z,16.88
2017-06-28T07:48:27.736Z,18.17
2017-06-28T07:50:56.056Z,17.58
2017-06-28T07:53:25.869Z,17.46
2017-06-28T07:55:53.253Z,14.82
2017-06-28T07:58:21.424Z,14.50
2017-06-28T08:00:48.507Z,13.86
2017-06-28T08:03:16.321Z,15.18
2017-06-28T08:05:43.702Z,15.60
2017-06-28T08:08:10.720Z,15.88
2017-06-28T08:10:37.973Z,13.88
2017-06-28T08:13:05.328Z,14.90
2017-06-28T08:15:32.390Z,14.28
2017-06-28T08:18:00.355Z,14.52
2017-06-28T08:20:28.088Z,13.28
2017-06-28T08:22:55.156Z,15.26
2017-06-28T08:25:22.442Z,13.22
2017-06-28T08:27:49.980Z,15.40
2017-06-28T08:30:17.253Z,13.24
2017-06-28T08:32:44.303Z,13.44
2017-06-28T08:35:11.358Z,14.46
2017-06-28T08:37:38.688Z,14.52
2017-06-28T08:40:05.447Z,15.34
2017-06-28T08:42:32.751Z,14.34
2017-06-28T08:44:59.523Z,14.06
2017-06-28T08:47:26.570Z,14.20
2017-06-28T08:49:54.693Z,14.08
2017-06-28T08:52:21.989Z,14.30
2017-06-28T08:54:49.218Z,14.90
2017-06-28T08:57:18.001Z,15.80
2017-06-28T08:59:45.154Z,16.88
2017-06-28T09:02:13.347Z,16.50
2017-06-28T09:04:46.146Z,15.12
2017-06-28T09:07:14.918Z,16.40
2017-06-28T09:09:45.604Z,15.60
2017-06-28T09:12:14.922Z,15.84
2017-06-28T09:14:48.854Z,16.24
2017-06-28T09:17:16.305Z,19.18
2017-06-28T09:19:46.158Z,15.92
2017-06-28T09:22:14.949Z,15.66
2017-06-28T09:27:26.611Z,15.74
2017-06-28T09:29:54.228Z,14.83
2017-06-28T09:32:25.958Z,17.25
2017-06-28T09:34:55.990Z,13.90
2017-06-28T09:40:10.491Z,14.50
2017-06-28T09:42:53.737Z,15.02
2017-06-28T09:53:24.477Z,14.02
2017-06-28T09:55:59.053Z,14.70
2017-06-28T09:58:30.930Z,13.28
2017-06-28T10:00:59.427Z,11.60
2017-06-28T10:03:27.246Z,15.46
2017-06-28T10:11:15.551Z,12.16
2017-06-28T10:13:44.706Z,12.74
2017-06-28T10:16:12.818Z,13.82
2017-06-28T10:18:39.691Z,13.08
2017-06-28T10:21:07.457Z,13.34
2017-06-28T10:23:36.072Z,14.60
2017-06-28T10:26:03.979Z,14.20
2017-06-28T10:28:32.586Z,13.58
2017-06-28T10:31:04.643Z,13.72
2017-06-28T10:33:34.732Z,14.22
2017-06-28T10:36:02.058Z,14.02
2017-06-28T10:38:30.112Z,13.38
2017-06-28T10:41:00.838Z,14.00
2017-06-28T10:43:32.941Z,13.94
2017-06-28T10:46:03.873Z,14.10
2017-06-28T10:48:33.028Z,13.14
2017-06-28T10:51:01.367Z,13.38
2017-06-28T10:53:34.573Z,13.14
2017-06-28T10:56:02.140Z,13.18
2017-06-28T10:58:32.447Z,13.80
2017-06-28T11:01:01.759Z,14.52
2017-06-28T11:03:31.710Z,15.26
2017-06-28T11:06:05.266Z,15.28
2017-06-28T11:08:37.696Z,14.82
2017-06-28T11:11:12.987Z,15.78
2017-06-28T11:13:41.475Z,15.40
2017-06-28T11:16:11.309Z,16.84
2017-06-28T11:18:44.746Z,16.14
2017-06-28T11:21:16.639Z,17.28
2017-06-28T11:26:21.582Z,17.44
2017-06-28T11:34:02.620Z,17.26
2017-06-28T11:36:32.319Z,16.72
2017-06-28T11:39:01.411Z,17.66
2017-06-28T11:41:33.620Z,17.70
2017-06-28T11:44:01.180Z,17.20
2017-06-28T11:46:29.935Z,16.92
2017-06-28T11:48:56.722Z,17.38
2017-06-28T11:51:24.181Z,17.36
2017-06-28T11:53:51.368Z,16.56
2017-06-28T11:56:18.589Z,15.60
2017-06-28T11:58:45.973Z,14.18
2017-06-28T12:01:13.027Z,12.70
2017-06-28T12:03:45.740Z,10.52
2017-06-28T12:06:14.165Z,12.48
2017-06-28T12:08:41.277Z,16.40
2017-06-28T12:11:08.635Z,16.88
2017-06-28T12:13:36.552Z,16.36
2017-06-28T12:16:03.606Z,13.20
2017-06-28T12:18:30.760Z,12.74
2017-06-28T12:20:58.871Z,16.56
2017-06-28T12:23:27.345Z,19.24
2017-06-28T12:25:54.437Z,19.44
2017-06-28T12:28:22.122Z,19.10
2017-06-28T12:30:50.472Z,19.54
2017-06-28T12:33:28.586Z,18.30
2017-06-28T12:35:55.435Z,19.08
2017-06-28T12:38:22.287Z,19.90
2017-06-28T12:40:49.387Z,18.88
2017-06-28T12:43:16.238Z,20.48
2017-06-28T12:45:43.096Z,13.82
2017-06-28T12:48:10.257Z,12.84
2017-06-28T12:50:37.101Z,11.68
2017-06-28T12:53:03.974Z,11.98
2017-06-28T12:55:31.405Z,13.56
2017-06-28T12:57:58.426Z,11.76
2017-06-28T13:00:25.292Z,11.44
2017-06-28T13:02:53.247Z,12.40
2017-06-28T13:05:20.099Z,10.28
2017-06-28T13:07:46.890Z,13.10
2017-06-28T13:10:14.034Z,10.87
2017-06-28T13:12:41.150Z,11.62
2017-06-28T13:15:08.187Z,12.20
2017-06-28T13:17:35.330Z,13.48
2017-06-28T13:20:02.137Z,10.62
2017-06-28T13:22:28.989Z,10.30
2017-06-28T13:24:56.587Z,9.57
2017-06-28T13:32:54.999Z,9.30
2017-06-28T13:35:21.883Z,9.54
2017-06-28T13:45:38.588Z,9.14
2017-06-28T13:48:06.243Z,8.22
2017-06-28T13:53:08.304Z,8.22
2017-06-28T13:58:22.561Z,8.88
2017-06-28T14:00:50.808Z,9.16
2017-06-28T14:03:18.207Z,9.28
2017-06-28T14:05:45.773Z,9.36
2017-06-28T14:08:13.134Z,9.28
2017-06-28T14:10:40.994Z,9.12
2017-06-28T14:15:40.930Z,8.54
2017-06-28T14:18:09.119Z,9.56
2017-06-28T14:20:36.908Z,8.44
2017-06-28T14:23:08.238Z,8.86
2017-06-28T14:25:35.952Z,9.50
2017-06-28T14:28:11.159Z,8.60
2017-06-28T14:30:39.902Z,8.44
2017-06-28T14:33:10.411Z,8.72
2017-06-28T14:35:38.145Z,9.06
2017-06-28T14:38:05.240Z,8.08
2017-06-28T14:43:09.777Z,7.78
2017-06-28T14:45:37.029Z,7.66
2017-06-28T14:48:04.473Z,8.08
2017-06-28T14:50:41.006Z,10.34
2017-06-28T14:53:08.322Z,10.88
2017-06-28T14:55:36.077Z,10.36
2017-06-28T14:58:04.442Z,10.20
2017-06-28T15:00:31.689Z,11.26
2017-06-28T15:02:58.757Z,12.40
2017-06-28T15:05:26.737Z,12.90
2017-06-28T15:07:54.995Z,13.30
2017-06-28T15:10:31.675Z,5.48
2017-06-28T15:20:42.953Z,5.73
2017-06-28T15:50:05.366Z,3.63
2017-06-28T16:06:00.447Z,4.55
2017-06-28T16:24:03.737Z,7.60
2017-06-28T16:37:26.793Z,7.12
2017-06-28T16:39:54.284Z,8.12
2017-06-28T16:42:24.778Z,8.18
2017-06-28T16:44:52.361Z,7.62
2017-06-28T16:47:19.692Z,8.92
2017-06-28T16:49:47.607Z,7.38
2017-06-28T16:52:16.070Z,9.35
2017-06-28T16:54:43.321Z,10.07
2017-06-28T16:57:10.244Z,10.90
2017-06-28T17:02:31.958Z,11.62
2017-06-28T17:05:00.249Z,8.18
2017-06-28T17:07:37.257Z,8.97
2017-06-28T17:10:04.167Z,9.37
2017-06-28T17:12:40.075Z,9.82
2017-06-28T17:18:15.301Z,8.72
2017-06-28T17:20:43.583Z,8.73
2017-06-28T17:23:10.481Z,8.78
2017-06-28T17:25:42.935Z,8.28
2017-06-28T17:28:16.159Z,10.25
2017-06-28T17:33:44.961Z,14.42
2017-06-28T17:40:08.634Z,12.84
2017-06-28T17:45:13.509Z,12.36
2017-06-28T17:50:30.030Z,14.68
2017-06-28T17:53:06.391Z,13.40
2017-06-28T17:55:40.751Z,12.75
2017-06-28T18:01:44.470Z,12.00
2017-06-28T18:04:33.356Z,13.00
2017-06-28T18:15:30.174Z,9.77
2017-06-28T18:17:59.901Z,9.57
2017-06-28T18:33:18.072Z,10.13
2017-06-28T22:09:13.171Z,21.50
2017-06-28T22:11:40.775Z,17.83
2017-06-28T22:14:25.081Z,18.13
2017-06-28T22:16:53.935Z,16.50
2017-06-28T22:19:41.174Z,10.25
2017-06-28T22:22:07.979Z,19.68
2017-06-28T22:24:37.833Z,18.08
2017-06-28T22:32:43.819Z,18.12
2017-06-28T22:54:02.698Z,21.97
2017-06-28T22:56:33.069Z,17.83
2017-06-28T23:01:53.349Z,19.65
2017-06-28T23:04:21.118Z,19.90
2017-06-28T23:06:48.815Z,23.03
2017-06-28T23:11:54.901Z,25.35
2017-06-28T23:14:22.737Z,18.62
2017-06-28T23:19:46.610Z,17.87
2017-06-28T23:22:20.815Z,19.58
2017-06-28T23:25:03.072Z,18.48
2017-06-28T23:33:35.223Z,21.22
2017-06-28T23:38:59.328Z,19.03
2017-06-28T23:41:27.988Z,23.33
2017-06-28T23:44:07.090Z,23.78
2017-06-28T23:50:33.510Z,23.60
2017-06-28T23:55:37.551Z,30.03
2017-06-28T23:58:06.407Z,24.38
